Buffalo River (Arkansas), Saint Joe (07056000)

StateArkansasCurrentHigh (2060 cfs)
RiverBuffalo RiverFlood - The river is flooding. Obstacles can be treacherous or deadly. The river should be avoided at this stage for casual trips and definitely for the inexperienced. Trips should be attempted only with protective gear and equipment.Flood(none)
Updated2020-01-25 13:45 (26 minutes ago)High - The river is high and potentially dangerous, especially for the young and / or inexperienced. Normal stream obstacles are sometimes difficult to navigate. Extended distances can be attempted, but canoe travel may not be advisable.High2000
Discharge2060 cfs (median: 540 cfs)Good - Conditions are ideal for a canoe or kayak. Boats typically will drag on fewer than one-quarter of riffles, if at all, and portages are unnecessary or rare. Normal float lengths can be attempted without a problem.Good(none)
Height7.06 feetLow - River is low but can still be floated. Some riffles are okay but most come with significant dragging and might need a portage. Float lengths should be reduced to accommodate low flow, dragging, and portages.Low120
TrendFalling (falling over 24 hours)Poor - River is too low to float comfortably. Most or all riffles will drag or must be portaged and some obstacles (such as slick shelf rock) cause undue problems. Avoid the river at this stage for casual paddling trips.Poor(none)
USGSExternal icon USGS Site for Saint Joe (07056000)LocationExternal icon Google Maps

Trending Data

Plot Image
ObservationHeightDischargeMaximum
Discharge
Minimum
Discharge
Mean
Discharge
P05P10P20P25P50
(Median)
P75P80P90P95
2020-01-25 13:45 7.06 2060 45400 (1949) 24 (1964) 1490 55 95 198 248 540 1090 1310 2550 4170
2020-01-25 12:45 7.07 2070 45400 (1949) 24 (1964) 1490 55 95 198 248 540 1090 1310 2550 4170
2020-01-25 11:45 7.08 2080 45400 (1949) 24 (1964) 1490 55 95 198 248 540 1090 1310 2550 4170
2020-01-25 10:45 7.09 2090 45400 (1949) 24 (1964) 1490 55 95 198 248 540 1090 1310 2550 4170
2020-01-25 09:45 7.11 2110 45400 (1949) 24 (1964) 1490 55 95 198 248 540 1090 1310 2550 4170
2020-01-25 08:45 7.13 2130 45400 (1949) 24 (1964) 1490 55 95 198 248 540 1090 1310 2550 4170
2020-01-25 07:45 7.15 2150 45400 (1949) 24 (1964) 1490 55 95 198 248 540 1090 1310 2550 4170
2020-01-25 06:45 7.16 2160 45400 (1949) 24 (1964) 1490 55 95 198 248 540 1090 1310 2550 4170
2020-01-25 05:45 7.18 2180 45400 (1949) 24 (1964) 1490 55 95 198 248 540 1090 1310 2550 4170
2020-01-25 04:45 7.18 2180 45400 (1949) 24 (1964) 1490 55 95 198 248 540 1090 1310 2550 4170
2020-01-25 03:45 7.21 2210 45400 (1949) 24 (1964) 1490 55 95 198 248 540 1090 1310 2550 4170
2020-01-25 02:45 7.23 2230 45400 (1949) 24 (1964) 1490 55 95 198 248 540 1090 1310 2550 4170
2020-01-25 01:45 7.23 2230 45400 (1949) 24 (1964) 1490 55 95 198 248 540 1090 1310 2550 4170
2020-01-25 00:45 7.25 2250 45400 (1949) 24 (1964) 1490 55 95 198 248 540 1090 1310 2550 4170
2020-01-24 23:45 7.26 2260 59800 (1949) 24 (1964) 1770 55 95 205 252 568 1190 1420 3310 5240
2020-01-24 22:45 7.27 2270 59800 (1949) 24 (1964) 1770 55 95 205 252 568 1190 1420 3310 5240
2020-01-24 21:45 7.27 2270 59800 (1949) 24 (1964) 1770 55 95 205 252 568 1190 1420 3310 5240
2020-01-24 20:45 7.28 2280 59800 (1949) 24 (1964) 1770 55 95 205 252 568 1190 1420 3310 5240
2020-01-24 19:45 7.29 2290 59800 (1949) 24 (1964) 1770 55 95 205 252 568 1190 1420 3310 5240
2020-01-24 18:45 7.30 2300 59800 (1949) 24 (1964) 1770 55 95 205 252 568 1190 1420 3310 5240
2020-01-24 17:45 7.30 2300 59800 (1949) 24 (1964) 1770 55 95 205 252 568 1190 1420 3310 5240
2020-01-24 16:45 7.30 2300 59800 (1949) 24 (1964) 1770 55 95 205 252 568 1190 1420 3310 5240
2020-01-24 15:45 7.30 2300 59800 (1949) 24 (1964) 1770 55 95 205 252 568 1190 1420 3310 5240
2020-01-24 14:45 7.29 2290 59800 (1949) 24 (1964) 1770 55 95 205 252 568 1190 1420 3310 5240
2020-01-24 13:45 7.31 2310 59800 (1949) 24 (1964) 1770 55 95 205 252 568 1190 1420 3310 5240
2020-01-24 12:45 7.28 2280 59800 (1949) 24 (1964) 1770 55 95 205 252 568 1190 1420 3310 5240
2020-01-24 11:45 7.30 2300 59800 (1949) 24 (1964) 1770 55 95 205 252 568 1190 1420 3310 5240
2020-01-24 10:45 7.29 2290 59800 (1949) 24 (1964) 1770 55 95 205 252 568 1190 1420 3310 5240
2020-01-24 09:45 7.28 2280 59800 (1949) 24 (1964) 1770 55 95 205 252 568 1190 1420 3310 5240
2020-01-24 08:45 7.27 2270 59800 (1949) 24 (1964) 1770 55 95 205 252 568 1190 1420 3310 5240
2020-01-24 07:45 7.26 2260 59800 (1949) 24 (1964) 1770 55 95 205 252 568 1190 1420 3310 5240
2020-01-24 06:45 7.24 2240 59800 (1949) 24 (1964) 1770 55 95 205 252 568 1190 1420 3310 5240
2020-01-24 05:45 7.23 2230 59800 (1949) 24 (1964) 1770 55 95 205 252 568 1190 1420 3310 5240
2020-01-24 04:45 7.19 2190 59800 (1949) 24 (1964) 1770 55 95 205 252 568 1190 1420 3310 5240
2020-01-24 03:45 7.16 2160 59800 (1949) 24 (1964) 1770 55 95 205 252 568 1190 1420 3310 5240
2020-01-24 02:45 7.12 2120 59800 (1949) 24 (1964) 1770 55 95 205 252 568 1190 1420 3310 5240
2020-01-24 01:45 7.09 2090 59800 (1949) 24 (1964) 1770 55 95 205 252 568 1190 1420 3310 5240
2020-01-24 00:45 7.05 2060 59800 (1949) 24 (1964) 1770 55 95 205 252 568 1190 1420 3310 5240
2020-01-23 23:45 6.99 2000 5560 (1973) 26 (1964) 899 59 97 209 262 553 1200 1300 2200 2710
2020-01-23 22:45 6.93 1940 5560 (1973) 26 (1964) 899 59 97 209 262 553 1200 1300 2200 2710
2020-01-23 21:45 6.87 1890 5560 (1973) 26 (1964) 899 59 97 209 262 553 1200 1300 2200 2710
2020-01-23 20:45 6.82 1840 5560 (1973) 26 (1964) 899 59 97 209 262 553 1200 1300 2200 2710
2020-01-23 19:45 6.77 1800 5560 (1973) 26 (1964) 899 59 97 209 262 553 1200 1300 2200 2710
2020-01-23 18:45 6.72 1750 5560 (1973) 26 (1964) 899 59 97 209 262 553 1200 1300 2200 2710
2020-01-23 17:45 6.64 1680 5560 (1973) 26 (1964) 899 59 97 209 262 553 1200 1300 2200 2710
2020-01-23 16:45 6.56 1620 5560 (1973) 26 (1964) 899 59 97 209 262 553 1200 1300 2200 2710
2020-01-23 15:45 6.51 1570 5560 (1973) 26 (1964) 899 59 97 209 262 553 1200 1300 2200 2710
2020-01-23 14:45 6.48 1550 5560 (1973) 26 (1964) 899 59 97 209 262 553 1200 1300 2200 2710
2020-01-23 13:45 6.44 1530 5560 (1973) 26 (1964) 899 59 97 209 262 553 1200 1300 2200 2710
2020-01-23 12:45 6.41 1520 5560 (1973) 26 (1964) 899 59 97 209 262 553 1200 1300 2200 2710
2020-01-23 11:45 6.37 1500 5560 (1973) 26 (1964) 899 59 97 209 262 553 1200 1300 2200 2710
2020-01-23 10:45 6.33 1470 5560 (1973) 26 (1964) 899 59 97 209 262 553 1200 1300 2200 2710
2020-01-23 09:45 6.31 1460 5560 (1973) 26 (1964) 899 59 97 209 262 553 1200 1300 2200 2710
2020-01-23 08:45 6.30 1460 5560 (1973) 26 (1964) 899 59 97 209 262 553 1200 1300 2200 2710
2020-01-23 07:45 6.28 1450 5560 (1973) 26 (1964) 899 59 97 209 262 553 1200 1300 2200 2710
2020-01-23 06:45 6.27 1440 5560 (1973) 26 (1964) 899 59 97 209 262 553 1200 1300 2200 2710
2020-01-23 05:45 6.26 1440 5560 (1973) 26 (1964) 899 59 97 209 262 553 1200 1300 2200 2710
2020-01-23 04:45 6.27 1440 5560 (1973) 26 (1964) 899 59 97 209 262 553 1200 1300 2200 2710
2020-01-23 03:45 6.27 1440 5560 (1973) 26 (1964) 899 59 97 209 262 553 1200 1300 2200 2710
2020-01-23 02:45 6.27 1440 5560 (1973) 26 (1964) 899 59 97 209 262 553 1200 1300 2200 2710
2020-01-23 01:45 6.27 1440 5560 (1973) 26 (1964) 899 59 97 209 262 553 1200 1300 2200 2710
2020-01-23 00:45 6.26 1440 5560 (1973) 26 (1964) 899 59 97 209 262 553 1200 1300 2200 2710
2020-01-22 23:45 6.26 1440 10800 (1973) 27 (1964) 924 59 95 189 233 452 1110 1320 2300 2800
2020-01-22 22:45 6.26 1440 10800 (1973) 27 (1964) 924 59 95 189 233 452 1110 1320 2300 2800
2020-01-22 21:45 6.26 1440 10800 (1973) 27 (1964) 924 59 95 189 233 452 1110 1320 2300 2800
2020-01-22 20:45 6.27 1440 10800 (1973) 27 (1964) 924 59 95 189 233 452 1110 1320 2300 2800
2020-01-22 19:45 6.27 1440 10800 (1973) 27 (1964) 924 59 95 189 233 452 1110 1320 2300 2800
2020-01-22 18:45 6.27 1440 10800 (1973) 27 (1964) 924 59 95 189 233 452 1110 1320 2300 2800
2020-01-22 17:45 6.27 1440 10800 (1973) 27 (1964) 924 59 95 189 233 452 1110 1320 2300 2800
2020-01-22 16:45 6.27 1440 10800 (1973) 27 (1964) 924 59 95 189 233 452 1110 1320 2300 2800
2020-01-22 15:45 6.27 1440 10800 (1973) 27 (1964) 924 59 95 189 233 452 1110 1320 2300 2800
2020-01-22 14:45 6.28 1450 10800 (1973) 27 (1964) 924 59 95 189 233 452 1110 1320 2300 2800
2020-01-22 13:45 6.28 1450 10800 (1973) 27 (1964) 924 59 95 189 233 452 1110 1320 2300 2800
2020-01-22 12:45 6.29 1450 10800 (1973) 27 (1964) 924 59 95 189 233 452 1110 1320 2300 2800
2020-01-22 11:45 6.29 1450 10800 (1973) 27 (1964) 924 59 95 189 233 452 1110 1320 2300 2800
2020-01-22 10:45 6.30 1460 10800 (1973) 27 (1964) 924 59 95 189 233 452 1110 1320 2300 2800
2020-01-22 09:45 6.31 1460 10800 (1973) 27 (1964) 924 59 95 189 233 452 1110 1320 2300 2800
2020-01-22 08:45 6.32 1470 10800 (1973) 27 (1964) 924 59 95 189 233 452 1110 1320 2300 2800
2020-01-22 07:45 6.32 1470 10800 (1973) 27 (1964) 924 59 95 189 233 452 1110 1320 2300 2800
2020-01-22 06:45 6.33 1470 10800 (1973) 27 (1964) 924 59 95 189 233 452 1110 1320 2300 2800
2020-01-22 05:45 6.33 1470 10800 (1973) 27 (1964) 924 59 95 189 233 452 1110 1320 2300 2800
2020-01-22 04:45 6.34 1480 10800 (1973) 27 (1964) 924 59 95 189 233 452 1110 1320 2300 2800
2020-01-22 03:45 6.35 1480 10800 (1973) 27 (1964) 924 59 95 189 233 452 1110 1320 2300 2800
2020-01-22 02:45 6.36 1490 10800 (1973) 27 (1964) 924 59 95 189 233 452 1110 1320 2300 2800
2020-01-22 01:45 6.37 1500 10800 (1973) 27 (1964) 924 59 95 189 233 452 1110 1320 2300 2800
2020-01-22 00:45 6.38 1500 10800 (1973) 27 (1964) 924 59 95 189 233 452 1110 1320 2300 2800
2020-01-21 23:45 6.38 1500 9560 (1973) 29 (1964) 911 52 98 192 239 502 972 1480 2530 3340
2020-01-21 22:45 6.40 1510 9560 (1973) 29 (1964) 911 52 98 192 239 502 972 1480 2530 3340
2020-01-21 21:45 6.40 1510 9560 (1973) 29 (1964) 911 52 98 192 239 502 972 1480 2530 3340
2020-01-21 20:45 6.41 1520 9560 (1973) 29 (1964) 911 52 98 192 239 502 972 1480 2530 3340
2020-01-21 19:45 6.43 1530 9560 (1973) 29 (1964) 911 52 98 192 239 502 972 1480 2530 3340
2020-01-21 18:45 6.43 1530 9560 (1973) 29 (1964) 911 52 98 192 239 502 972 1480 2530 3340
2020-01-21 17:45 6.44 1530 9560 (1973) 29 (1964) 911 52 98 192 239 502 972 1480 2530 3340
2020-01-21 16:45 6.44 1530 9560 (1973) 29 (1964) 911 52 98 192 239 502 972 1480 2530 3340
2020-01-21 15:45 6.46 1540 9560 (1973) 29 (1964) 911 52 98 192 239 502 972 1480 2530 3340
2020-01-21 14:45 6.47 1550 9560 (1973) 29 (1964) 911 52 98 192 239 502 972 1480 2530 3340
2020-01-21 13:45 6.49 1560 9560 (1973) 29 (1964) 911 52 98 192 239 502 972 1480 2530 3340
2020-01-21 12:45 6.49 1560 9560 (1973) 29 (1964) 911 52 98 192 239 502 972 1480 2530 3340
2020-01-21 11:45 6.49 1560 9560 (1973) 29 (1964) 911 52 98 192 239 502 972 1480 2530 3340
2020-01-21 10:45 6.51 1570 9560 (1973) 29 (1964) 911 52 98 192 239 502 972 1480 2530 3340
2020-01-21 09:45 6.52 1580 9560 (1973) 29 (1964) 911 52 98 192 239 502 972 1480 2530 3340
2020-01-21 08:45 6.52 1580 9560 (1973) 29 (1964) 911 52 98 192 239 502 972 1480 2530 3340
2020-01-21 07:45 6.53 1590 9560 (1973) 29 (1964) 911 52 98 192 239 502 972 1480 2530 3340
2020-01-21 06:45 6.54 1600 9560 (1973) 29 (1964) 911 52 98 192 239 502 972 1480 2530 3340
2020-01-21 05:45 6.55 1610 9560 (1973) 29 (1964) 911 52 98 192 239 502 972 1480 2530 3340
2020-01-21 04:45 6.57 1620 9560 (1973) 29 (1964) 911 52 98 192 239 502 972 1480 2530 3340
2020-01-21 03:45 6.58 1630 9560 (1973) 29 (1964) 911 52 98 192 239 502 972 1480 2530 3340
2020-01-21 02:45 6.59 1640 9560 (1973) 29 (1964) 911 52 98 192 239 502 972 1480 2530 3340
2020-01-21 01:45 6.60 1650 9560 (1973) 29 (1964) 911 52 98 192 239 502 972 1480 2530 3340
2020-01-21 00:45 6.61 1660 9560 (1973) 29 (1964) 911 52 98 192 239 502 972 1480 2530 3340
2020-01-20 23:45 6.62 1670 10000 (1990) 29 (1964) 929 54 99 191 229 477 960 1410 2140 3270
2020-01-20 22:45 6.63 1670 10000 (1990) 29 (1964) 929 54 99 191 229 477 960 1410 2140 3270
2020-01-20 21:45 6.65 1690 10000 (1990) 29 (1964) 929 54 99 191 229 477 960 1410 2140 3270
2020-01-20 20:45 6.66 1700 10000 (1990) 29 (1964) 929 54 99 191 229 477 960 1410 2140 3270
2020-01-20 19:45 6.67 1710 10000 (1990) 29 (1964) 929 54 99 191 229 477 960 1410 2140 3270
2020-01-20 18:45 6.68 1720 10000 (1990) 29 (1964) 929 54 99 191 229 477 960 1410 2140 3270
2020-01-20 17:45 6.69 1730 10000 (1990) 29 (1964) 929 54 99 191 229 477 960 1410 2140 3270
2020-01-20 16:45 6.71 1740 10000 (1990) 29 (1964) 929 54 99 191 229 477 960 1410 2140 3270
2020-01-20 15:45 6.72 1750 10000 (1990) 29 (1964) 929 54 99 191 229 477 960 1410 2140 3270
2020-01-20 14:45 6.73 1760 10000 (1990) 29 (1964) 929 54 99 191 229 477 960 1410 2140 3270
2020-01-20 13:45 6.75 1780 10000 (1990) 29 (1964) 929 54 99 191 229 477 960 1410 2140 3270
2020-01-20 12:45 6.76 1790 10000 (1990) 29 (1964) 929 54 99 191 229 477 960 1410 2140 3270
2020-01-20 11:45 6.77 1800 10000 (1990) 29 (1964) 929 54 99 191 229 477 960 1410 2140 3270
2020-01-20 10:45 6.78 1810 10000 (1990) 29 (1964) 929 54 99 191 229 477 960 1410 2140 3270
2020-01-20 09:45 6.80 1820 10000 (1990) 29 (1964) 929 54 99 191 229 477 960 1410 2140 3270
2020-01-20 08:45 6.80 1820 10000 (1990) 29 (1964) 929 54 99 191 229 477 960 1410 2140 3270
2020-01-20 07:45 6.83 1850 10000 (1990) 29 (1964) 929 54 99 191 229 477 960 1410 2140 3270
2020-01-20 06:45 6.84 1860 10000 (1990) 29 (1964) 929 54 99 191 229 477 960 1410 2140 3270
2020-01-20 05:45 6.86 1880 10000 (1990) 29 (1964) 929 54 99 191 229 477 960 1410 2140 3270
2020-01-20 04:45 6.88 1900 10000 (1990) 29 (1964) 929 54 99 191 229 477 960 1410 2140 3270
2020-01-20 03:45 6.88 1900 10000 (1990) 29 (1964) 929 54 99 191 229 477 960 1410 2140 3270
2020-01-20 02:45 6.91 1920 10000 (1990) 29 (1964) 929 54 99 191 229 477 960 1410 2140 3270
2020-01-20 01:45 6.93 1940 10000 (1990) 29 (1964) 929 54 99 191 229 477 960 1410 2140 3270
2020-01-20 00:45 6.95 1960 10000 (1990) 29 (1964) 929 54 99 191 229 477 960 1410 2140 3270
2020-01-19 23:45 6.96 1970 8150 (1949) 29 (1964) 855 50 99 185 222 470 880 1110 2440 3000
2020-01-19 22:45 6.99 2000 8150 (1949) 29 (1964) 855 50 99 185 222 470 880 1110 2440 3000
2020-01-19 21:45 7.00 2010 8150 (1949) 29 (1964) 855 50 99 185 222 470 880 1110 2440 3000
2020-01-19 20:45 7.03 2040 8150 (1949) 29 (1964) 855 50 99 185 222 470 880 1110 2440 3000
2020-01-19 19:45 7.04 2050 8150 (1949) 29 (1964) 855 50 99 185 222 470 880 1110 2440 3000
2020-01-19 18:45 7.08 2080 8150 (1949) 29 (1964) 855 50 99 185 222 470 880 1110 2440 3000
2020-01-19 17:45 7.10 2100 8150 (1949) 29 (1964) 855 50 99 185 222 470 880 1110 2440 3000
2020-01-19 16:45 7.11 2110 8150 (1949) 29 (1964) 855 50 99 185 222 470 880 1110 2440 3000
2020-01-19 15:45 7.16 2160 8150 (1949) 29 (1964) 855 50 99 185 222 470 880 1110 2440 3000
2020-01-19 14:45 7.17 2170 8150 (1949) 29 (1964) 855 50 99 185 222 470 880 1110 2440 3000
2020-01-19 13:45 7.22 2220 8150 (1949) 29 (1964) 855 50 99 185 222 470 880 1110 2440 3000
2020-01-19 12:45 7.25 2250 8150 (1949) 29 (1964) 855 50 99 185 222 470 880 1110 2440 3000
2020-01-19 11:45 7.27 2270 8150 (1949) 29 (1964) 855 50 99 185 222 470 880 1110 2440 3000
2020-01-19 10:45 7.30 2300 8150 (1949) 29 (1964) 855 50 99 185 222 470 880 1110 2440 3000
2020-01-19 09:45 7.33 2330 8150 (1949) 29 (1964) 855 50 99 185 222 470 880 1110 2440 3000
2020-01-19 08:45 7.34 2340 8150 (1949) 29 (1964) 855 50 99 185 222 470 880 1110 2440 3000
2020-01-19 07:45 7.36 2360 8150 (1949) 29 (1964) 855 50 99 185 222 470 880 1110 2440 3000
2020-01-19 06:45 7.36 2360 8150 (1949) 29 (1964) 855 50 99 185 222 470 880 1110 2440 3000
2020-01-19 05:45 7.35 2350 8150 (1949) 29 (1964) 855 50 99 185 222 470 880 1110 2440 3000
2020-01-19 04:45 7.30 2300 8150 (1949) 29 (1964) 855 50 99 185 222 470 880 1110 2440 3000
2020-01-19 03:45 7.27 2270 8150 (1949) 29 (1964) 855 50 99 185 222 470 880 1110 2440 3000
2020-01-19 02:45 7.23 2230 8150 (1949) 29 (1964) 855 50 99 185 222 470 880 1110 2440 3000
2020-01-19 01:45 7.22 2220 8150 (1949) 29 (1964) 855 50 99 185 222 470 880 1110 2440 3000
2020-01-19 00:45 7.19 2190 8150 (1949) 29 (1964) 855 50 99 185 222 470 880 1110 2440 3000
2020-01-18 23:45 7.17 2170 6350 (1949) 27 (1964) 796 48 87 187 220 438 944 1170 2480 2970
2020-01-18 22:45 7.11 2110 6350 (1949) 27 (1964) 796 48 87 187 220 438 944 1170 2480 2970
2020-01-18 21:45 7.07 2070 6350 (1949) 27 (1964) 796 48 87 187 220 438 944 1170 2480 2970
2020-01-18 20:45 7.02 2030 6350 (1949) 27 (1964) 796 48 87 187 220 438 944 1170 2480 2970
2020-01-18 19:45 6.96 1970 6350 (1949) 27 (1964) 796 48 87 187 220 438 944 1170 2480 2970
2020-01-18 18:45 6.91 1920 6350 (1949) 27 (1964) 796 48 87 187 220 438 944 1170 2480 2970
2020-01-18 17:45 6.88 1900 6350 (1949) 27 (1964) 796 48 87 187 220 438 944 1170 2480 2970
2020-01-18 16:45 6.85 1870 6350 (1949) 27 (1964) 796 48 87 187 220 438 944 1170 2480 2970
2020-01-18 15:45 6.81 1830 6350 (1949) 27 (1964) 796 48 87 187 220 438 944 1170 2480 2970
2020-01-18 14:45 6.80 1820 6350 (1949) 27 (1964) 796 48 87 187 220 438 944 1170 2480 2970
2020-01-18 13:45 6.78 1810 6350 (1949) 27 (1964) 796 48 87 187 220 438 944 1170 2480 2970
2020-01-18 12:45 6.77 1800 6350 (1949) 27 (1964) 796 48 87 187 220 438 944 1170 2480 2970
2020-01-18 11:45 6.76 1790 6350 (1949) 27 (1964) 796 48 87 187 220 438 944 1170 2480 2970
2020-01-18 10:45 6.74 1770 6350 (1949) 27 (1964) 796 48 87 187 220 438 944 1170 2480 2970
2020-01-18 09:45 6.74 1770 6350 (1949) 27 (1964) 796 48 87 187 220 438 944 1170 2480 2970
2020-01-18 08:45 6.73 1760 6350 (1949) 27 (1964) 796 48 87 187 220 438 944 1170 2480 2970
2020-01-18 07:45 6.74 1770 6350 (1949) 27 (1964) 796 48 87 187 220 438 944 1170 2480 2970
2020-01-18 06:45 6.74 1770 6350 (1949) 27 (1964) 796 48 87 187 220 438 944 1170 2480 2970
2020-01-18 05:45 6.74 1770 6350 (1949) 27 (1964) 796 48 87 187 220 438 944 1170 2480 2970
2020-01-18 04:45 6.74 1770 6350 (1949) 27 (1964) 796 48 87 187 220 438 944 1170 2480 2970
2020-01-18 03:45 6.74 1770 6350 (1949) 27 (1964) 796 48 87 187 220 438 944 1170 2480 2970
2020-01-18 02:45 6.75 1780 6350 (1949) 27 (1964) 796 48 87 187 220 438 944 1170 2480 2970
2020-01-18 01:45 6.75 1780 6350 (1949) 27 (1964) 796 48 87 187 220 438 944 1170 2480 2970
2020-01-18 00:45 6.75 1780 6350 (1949) 27 (1964) 796 48 87 187 220 438 944 1170 2480 2970

A total of 182 rows are displayed for years 1940 through 2018.

Trips for Buffalo River (Arkansas), Saint Joe (07056000)

DateStartEndDistanceConditionDischargeHeightFishingDetails
Click for details2015-06-27 Tyler Bend Gilbert Total trip distance: 5.6 miles5.6 Good 2470 7.41 None NoneNone Beaver, Laura
Seever, Mike
Seever, Natalie
Beaver, Laura; Seever, Mike; Seever, Natalie
This trip was reported by Natalie null. She stated that they didn't drag anywhere and took the trip in about 3 hours, half of the estimate given to them.This trip was reported by Natalie null. She stated that they didn't drag anywhere and took the trip in about 3 hours, half of the estimate given to them. USGS Gauge Data:
Saint Joe (07056000)
Discharge: 2470
Height: 7.41
<b>USGS Gauge Data:</b></br />Saint Joe (07056000)<br />Discharge: 2470<br />Height: 7.41
Source: SeeverSource: Seever
Click for details2010-10-09 Carver Mount Hersey Total trip distance: 15.3 miles6.8 Low 57 3.79 Great SMB
RB
LSF
BLG
SMB, RB, LSF, BLG
Fillmore, Brian
Fillmore, Rebecca
Fillmore, Brian; Fillmore, Rebecca
No notes for this trip<i>No notes for this trip</i> USGS Gauge Data:
Saint Joe (07056000)
Discharge: 57
Height: 3.79
<b>USGS Gauge Data:</b></br />Saint Joe (07056000)<br />Discharge: 57<br />Height: 3.79
Source: FillmoreSource: Fillmore
Click for details2010-10-10 Mount Hersey Woolum Total trip distance: 15.3 miles8.5 Low 55 3.78 Great SMB
RB
LSF
BLG
SMB, RB, LSF, BLG
Fillmore, Brent
Fillmore, Brian
Fillmore, Rebecca
Ligon, Day
Ligon, Elicia
Ligon, Elseya
Fillmore, Brent; Fillmore, Brian; Fillmore, Rebecca; Ligon, Day; Ligon, Elicia; Ligon, Elseya
No notes for this trip<i>No notes for this trip</i> USGS Gauge Data:
Saint Joe (07056000)
Discharge: 55
Height: 3.78
<b>USGS Gauge Data:</b></br />Saint Joe (07056000)<br />Discharge: 55<br />Height: 3.78
Source: FillmoreSource: Fillmore
Click for details2011-10-12 Red Bluff Little Rocky Creek Total trip distance: 11.7 miles3.9 Low 47 3.49 Great SMB
RB
LSF
SMB, RB, LSF
Fillmore, Brian
Fillmore, Rebecca
Fillmore, Brian; Fillmore, Rebecca
No notes for this trip<i>No notes for this trip</i> USGS Gauge Data:
Saint Joe (07056000)
Discharge: 47
Height: 3.49
<b>USGS Gauge Data:</b></br />Saint Joe (07056000)<br />Discharge: 47<br />Height: 3.49
Source: FillmoreSource: Fillmore
Click for details2011-10-13 Little Rocky Creek Maumee South Total trip distance: 11.7 miles3.9 Low 47 3.49 Great SMB
RB
LSF
SMB, RB, LSF
Fillmore, Brian
Fillmore, Rebecca
Fillmore, Brian; Fillmore, Rebecca
No notes for this trip<i>No notes for this trip</i> USGS Gauge Data:
Saint Joe (07056000)
Discharge: 47
Height: 3.49
<b>USGS Gauge Data:</b></br />Saint Joe (07056000)<br />Discharge: 47<br />Height: 3.49
Source: FillmoreSource: Fillmore
Click for details2011-10-11 Gilbert Red Bluff Total trip distance: 11.7 miles3.9 Low 44 3.47 Good SMB
RB
LSF
SMB, RB, LSF
Fillmore, Brian
Fillmore, Rebecca
Fillmore, Brian; Fillmore, Rebecca
No notes for this trip<i>No notes for this trip</i> USGS Gauge Data:
Saint Joe (07056000)
Discharge: 44
Height: 3.47
<b>USGS Gauge Data:</b></br />Saint Joe (07056000)<br />Discharge: 44<br />Height: 3.47
Source: FillmoreSource: Fillmore

A total of 6 rows are displayed.

Trip Summary for Buffalo River (Arkansas), Saint Joe (07056000)

Miles32.6
Trips3
People9
Dates6
Years3
Months2
Rows6
Sources2

Condition Descriptions

Fishing Conditions

Fish Species

Notes

Classic Trip List

The classic River Trips application is still available for use. It is updated with the new system using a data retrofit. It is no longer maintained. The original River Trips application is no longer updated (as of 1 Dec 2016) but can be checked for errors or for the condition of the data before it was converted to the new system.